Time;durP1;ratioP1;P1;durP2;ratioP2;P2;SDS_P1;SDS_P2;PMS_P1;PMS_P2;Temp;Humidity;BMP_temperature;BMP_pressure;BME280_temperature;BME280_humidity;BME280_pressure;Samples;Min_cycle;Max_cycle;Signal;HPM_P1;HPM_P2
2022/02/26 00:01:41;;;;;;;4.13;3.75;;;;;;;;;;5024468;28;20092;-60
2022/02/26 00:04:07;;;;;;;4.35;3.95;;;;;;;;;;5025938;28;20456;-60
2022/02/26 00:06:33;;;;;;;3.85;3.50;;;;;;;;;;5024556;28;20036;-59
2022/02/26 00:08:59;;;;;;;5.57;3.90;;;;;;;;;;5027510;28;20387;-59
2022/02/26 00:11:24;;;;;;;4.20;3.80;;;;;;;;;;5032731;28;20122;-59
2022/02/26 00:13:49;;;;;;;12.10;3.72;;;;;;;;;;5034279;28;20068;-61
2022/02/26 00:16:15;;;;;;;3.80;3.50;;;;;;;;;;5034100;28;20122;-61
2022/02/26 00:18:41;;;;;;;5.40;4.90;;;;;;;;;;5037055;28;20048;-59
2022/02/26 00:21:07;;;;;;;4.60;4.15;;;;;;;;;;5035757;28;20090;-59
2022/02/26 00:23:33;;;;;;;4.25;3.85;;;;;;;;;;5037844;28;20025;-59
2022/02/26 00:25:58;;;;;;;5.40;3.70;;;;;;;;;;5041211;28;20028;-59
2022/02/26 00:28:24;;;;;;;5.43;4.53;;;;;;;;;;5039510;28;20052;-59
2022/02/26 00:30:49;;;;;;;4.78;3.80;;;;;;;;;;5037217;28;20024;-60
2022/02/26 00:33:14;;;;;;;4.60;4.07;;;;;;;;;;5038585;28;20051;-59
2022/02/26 00:35:41;;;;;;;5.40;3.95;;;;;;;;;;5037099;28;20115;-60
2022/02/26 00:38:07;;;;;;;3.63;3.33;;;;;;;;;;5039356;28;20775;-60
2022/02/26 00:40:33;;;;;;;3.60;3.30;;;;;;;;;;5038228;28;20036;-60
2022/02/26 00:42:59;;;;;;;3.42;3.13;;;;;;;;;;5038304;28;20070;-60
2022/02/26 00:45:24;;;;;;;3.50;3.20;;;;;;;;;;5037959;28;20065;-60
2022/02/26 00:47:50;;;;;;;3.38;3.08;;;;;;;;;;5038142;28;20117;-61
2022/02/26 00:50:15;;;;;;;5.93;4.70;;;;;;;;;;5033734;28;20045;-61
2022/02/26 00:52:41;;;;;;;3.85;3.55;;;;;;;;;;5036832;28;20069;-61
2022/02/26 00:55:07;;;;;;;4.07;3.67;;;;;;;;;;5038792;28;20041;-60
2022/02/26 00:57:32;;;;;;;3.80;3.50;;;;;;;;;;5037043;28;20043;-61
2022/02/26 00:59:58;;;;;;;4.18;3.78;;;;;;;;;;5041268;28;20025;-61
2022/02/26 01:02:23;;;;;;;4.63;4.15;;;;;;;;;;5038853;28;20441;-61
2022/02/26 01:04:49;;;;;;;4.50;4.10;;;;;;;;;;5038470;28;20033;-61
2022/02/26 01:07:15;;;;;;;4.45;4.05;;;;;;;;;;5039512;28;20038;-61
2022/02/26 01:09:41;;;;;;;4.70;4.30;;;;;;;;;;5037998;28;20356;-61
2022/02/26 01:12:08;;;;;;;4.13;3.78;;;;;;;;;;5041051;28;20033;-61
2022/02/26 01:14:35;;;;;;;4.18;3.85;;;;;;;;;;5036460;28;20032;-61
2022/02/26 01:17:02;;;;;;;5.45;5.03;;;;;;;;;;5038168;28;20029;-61
2022/02/26 01:19:27;;;;;;;6.20;4.10;;;;;;;;;;5036761;28;20517;-61
2022/02/26 01:21:53;;;;;;;4.68;4.05;;;;;;;;;;5035772;28;20033;-60
2022/02/26 01:24:18;;;;;;;6.28;4.28;;;;;;;;;;5035127;28;20458;-60
2022/02/26 01:26:44;;;;;;;4.72;4.28;;;;;;;;;;5034704;28;20036;-60
2022/02/26 01:29:09;;;;;;;4.75;4.35;;;;;;;;;;5037101;28;20044;-60
2022/02/26 01:31:34;;;;;;;4.85;4.45;;;;;;;;;;5036570;28;20033;-60
2022/02/26 01:34:00;;;;;;;4.95;4.55;;;;;;;;;;5038161;28;20026;-60
2022/02/26 01:36:26;;;;;;;4.50;4.10;;;;;;;;;;5036776;28;20040;-59
2022/02/26 01:38:52;;;;;;;5.50;4.90;;;;;;;;;;5034513;28;20459;-61
2022/02/26 01:41:18;;;;;;;4.85;4.45;;;;;;;;;;5037759;28;20029;-60
2022/02/26 01:43:44;;;;;;;5.38;4.90;;;;;;;;;;5034754;28;20048;-59
2022/02/26 01:46:10;;;;;;;4.05;3.75;;;;;;;;;;5038795;28;20033;-59
2022/02/26 01:48:36;;;;;;;4.72;4.22;;;;;;;;;;5034717;28;20037;-61
2022/02/26 01:51:03;;;;;;;5.22;4.80;;;;;;;;;;5038072;28;20094;-59
2022/02/26 01:53:28;;;;;;;4.68;4.28;;;;;;;;;;5034123;28;20061;-59
2022/02/26 01:55:54;;;;;;;4.35;4.00;;;;;;;;;;5033919;28;20410;-61
2022/02/26 01:58:19;;;;;;;4.60;4.20;;;;;;;;;;5039033;28;20048;-61
2022/02/26 02:00:45;;;;;;;4.30;3.90;;;;;;;;;;5035668;28;20033;-61
2022/02/26 02:03:10;;;;;;;4.95;4.28;;;;;;;;;;5039123;28;20520;-61
2022/02/26 02:05:36;;;;;;;4.00;3.67;;;;;;;;;;5033965;28;20033;-61
2022/02/26 02:08:02;;;;;;;4.68;4.15;;;;;;;;;;5034138;28;20029;-62
2022/02/26 02:10:27;;;;;;;5.18;4.68;;;;;;;;;;5035514;28;20435;-62
2022/02/26 02:12:53;;;;;;;4.40;4.00;;;;;;;;;;5039451;28;20029;-60
2022/02/26 02:15:35;;;;;;;4.28;3.88;;;;;;;;;;5034600;28;20040;-60
2022/02/26 02:18:01;;;;;;;3.65;3.35;;;;;;;;;;5036050;28;20033;-62
2022/02/26 02:20:27;;;;;;;3.92;3.53;;;;;;;;;;5032848;28;20487;-62
2022/02/26 02:22:52;;;;;;;4.72;4.13;;;;;;;;;;5035683;28;20116;-60
2022/02/26 02:25:18;;;;;;;5.25;4.15;;;;;;;;;;5035504;28;20455;-60
2022/02/26 02:27:43;;;;;;;4.40;4.00;;;;;;;;;;5033772;28;20524;-59
2022/02/26 02:30:10;;;;;;;5.43;4.38;;;;;;;;;;5033620;28;20036;-60
2022/02/26 02:32:35;;;;;;;4.00;3.60;;;;;;;;;;5039435;28;20036;-60
2022/02/26 02:35:01;;;;;;;4.18;3.78;;;;;;;;;;5035568;28;20033;-60
2022/02/26 02:37:26;;;;;;;5.15;3.70;;;;;;;;;;5034190;28;20057;-60
2022/02/26 02:39:51;;;;;;;5.10;4.63;;;;;;;;;;5035311;28;20060;-60
2022/02/26 02:42:16;;;;;;;4.78;4.10;;;;;;;;;;5034139;28;20095;-60
2022/02/26 02:44:43;;;;;;;4.78;3.65;;;;;;;;;;5033285;28;20033;-60
2022/02/26 02:47:09;;;;;;;4.13;3.72;;;;;;;;;;5034235;28;20521;-61
2022/02/26 02:49:36;;;;;;;3.88;3.53;;;;;;;;;;5035937;28;20041;-61
2022/02/26 02:52:01;;;;;;;3.90;3.58;;;;;;;;;;5035339;28;20410;-60
2022/02/26 02:54:27;;;;;;;4.32;3.92;;;;;;;;;;5030331;28;20140;-61
2022/02/26 02:56:52;;;;;;;4.85;4.10;;;;;;;;;;5034828;28;20406;-61
2022/02/26 02:59:18;;;;;;;4.07;3.67;;;;;;;;;;5035470;28;20080;-60
2022/02/26 03:01:43;;;;;;;3.90;3.53;;;;;;;;;;5034973;28;20048;-61
2022/02/26 03:04:09;;;;;;;4.35;3.95;;;;;;;;;;5034815;28;20073;-61
2022/02/26 03:06:34;;;;;;;4.43;3.83;;;;;;;;;;5034598;28;20041;-61
2022/02/26 03:09:00;;;;;;;4.05;3.65;;;;;;;;;;5038236;28;20079;-61
2022/02/26 03:11:26;;;;;;;4.35;3.95;;;;;;;;;;5032193;28;20029;-61
2022/02/26 03:13:51;;;;;;;3.85;3.53;;;;;;;;;;5033369;28;20520;-61
2022/02/26 03:16:17;;;;;;;4.05;3.72;;;;;;;;;;5037618;28;20094;-61
2022/02/26 03:18:42;;;;;;;10.25;4.30;;;;;;;;;;5035125;28;20106;-61
2022/02/26 03:21:08;;;;;;;4.15;3.75;;;;;;;;;;5036496;28;20481;-61
2022/02/26 03:23:33;;;;;;;4.43;4.03;;;;;;;;;;5036619;28;20045;-61
2022/02/26 03:25:58;;;;;;;3.97;3.58;;;;;;;;;;5032543;28;20025;-61
2022/02/26 03:28:24;;;;;;;4.60;4.20;;;;;;;;;;5032083;28;20946;-61
2022/02/26 03:30:49;;;;;;;5.50;4.38;;;;;;;;;;5033474;28;20028;-61
2022/02/26 03:33:15;;;;;;;3.88;3.40;;;;;;;;;;5038920;28;20044;-61
2022/02/26 03:35:41;;;;;;;3.60;3.30;;;;;;;;;;5034665;28;20467;-61
2022/02/26 03:38:07;;;;;;;3.70;3.38;;;;;;;;;;5033499;28;20082;-61
2022/02/26 03:40:33;;;;;;;4.57;4.18;;;;;;;;;;5033960;28;20037;-61
2022/02/26 03:42:58;;;;;;;8.80;4.85;;;;;;;;;;5034611;28;20042;-61
2022/02/26 03:45:24;;;;;;;4.20;3.80;;;;;;;;;;5032858;28;20104;-61
2022/02/26 03:47:49;;;;;;;5.57;4.18;;;;;;;;;;5032225;28;20091;-61
2022/02/26 03:50:15;;;;;;;5.07;4.32;;;;;;;;;;5034846;28;20091;-61
2022/02/26 03:52:40;;;;;;;4.57;4.18;;;;;;;;;;5032974;28;20029;-61
2022/02/26 03:55:07;;;;;;;4.07;3.78;;;;;;;;;;5034640;28;20104;-61
2022/02/26 03:57:32;;;;;;;4.35;3.95;;;;;;;;;;5036286;28;20033;-61
2022/02/26 03:59:58;;;;;;;4.32;3.92;;;;;;;;;;5035168;28;20047;-61
2022/02/26 04:02:24;;;;;;;3.70;3.40;;;;;;;;;;5037556;28;20090;-61
2022/02/26 04:04:49;;;;;;;4.13;3.75;;;;;;;;;;5036538;28;20120;-61
2022/02/26 04:07:15;;;;;;;4.80;4.10;;;;;;;;;;5040987;28;20064;-61
2022/02/26 04:09:41;;;;;;;5.63;4.20;;;;;;;;;;5037308;28;20131;-61
2022/02/26 04:12:07;;;;;;;3.83;3.53;;;;;;;;;;5035413;28;20029;-61
2022/02/26 04:14:32;;;;;;;4.15;3.75;;;;;;;;;;5038601;28;20068;-61
2022/02/26 04:16:58;;;;;;;5.10;4.60;;;;;;;;;;5041885;28;20622;-61
2022/02/26 04:19:24;;;;;;;4.22;3.83;;;;;;;;;;5040366;28;20033;-61
2022/02/26 04:21:49;;;;;;;4.28;3.88;;;;;;;;;;5038118;28;20131;-61
2022/02/26 04:24:15;;;;;;;3.92;3.63;;;;;;;;;;5037339;28;20029;-61
2022/02/26 04:26:40;;;;;;;3.97;3.58;;;;;;;;;;5034902;28;20025;-61
2022/02/26 04:29:06;;;;;;;4.30;3.90;;;;;;;;;;5033350;28;20029;-61
2022/02/26 04:31:31;;;;;;;4.72;4.10;;;;;;;;;;5037490;28;20116;-61
2022/02/26 04:33:57;;;;;;;4.95;4.35;;;;;;;;;;5036300;28;20029;-61
2022/02/26 04:36:22;;;;;;;4.32;3.92;;;;;;;;;;5035864;28;20041;-61
2022/02/26 04:38:48;;;;;;;7.13;4.28;;;;;;;;;;5035214;28;20043;-61
2022/02/26 04:41:13;;;;;;;3.83;3.53;;;;;;;;;;5034838;28;20040;-61
2022/02/26 04:43:41;;;;;;;4.30;3.90;;;;;;;;;;5035478;28;20048;-61
2022/02/26 04:46:07;;;;;;;4.68;4.15;;;;;;;;;;5040277;28;20375;-61
2022/02/26 04:48:33;;;;;;;5.82;3.80;;;;;;;;;;5037061;28;20029;-61
2022/02/26 04:50:59;;;;;;;5.47;4.97;;;;;;;;;;5037731;28;20033;-61
2022/02/26 04:53:24;;;;;;;11.77;3.70;;;;;;;;;;5037298;28;20041;-61
2022/02/26 04:55:50;;;;;;;4.65;4.25;;;;;;;;;;5039365;28;20025;-61
2022/02/26 04:58:19;;;;;;;4.63;4.22;;;;;;;;;;5039824;28;21008;-60
2022/02/26 05:00:44;;;;;;;3.92;3.63;;;;;;;;;;5039951;28;20044;-60
2022/02/26 05:03:10;;;;;;;4.30;3.78;;;;;;;;;;5037542;28;20029;-60
2022/02/26 05:05:35;;;;;;;4.65;3.33;;;;;;;;;;5032550;28;20180;-61
2022/02/26 05:08:01;;;;;;;3.25;2.95;;;;;;;;;;5030677;28;20037;-61
2022/02/26 05:10:26;;;;;;;6.20;4.97;;;;;;;;;;5036208;28;20035;-61
2022/02/26 05:12:52;;;;;;;4.25;3.60;;;;;;;;;;5036326;28;20028;-61
2022/02/26 05:15:17;;;;;;;5.47;4.45;;;;;;;;;;5033956;28;20132;-61
2022/02/26 05:17:43;;;;;;;4.13;3.63;;;;;;;;;;5035552;28;20041;-61
2022/02/26 05:20:10;;;;;;;4.78;4.38;;;;;;;;;;5036572;28;20115;-61
2022/02/26 05:22:35;;;;;;;5.28;3.92;;;;;;;;;;5033185;28;20029;-61
2022/02/26 05:25:03;;;;;;;3.95;3.55;;;;;;;;;;5035423;28;20047;-60
2022/02/26 05:27:29;;;;;;;4.88;3.63;;;;;;;;;;5035904;28;20925;-59
2022/02/26 05:29:54;;;;;;;6.43;4.07;;;;;;;;;;5032983;28;20028;-60
2022/02/26 05:32:19;;;;;;;4.28;3.88;;;;;;;;;;5025825;28;20039;-59
2022/02/26 05:34:45;;;;;;;4.15;3.72;;;;;;;;;;5028928;28;20026;-59
2022/02/26 05:37:10;;;;;;;4.07;3.28;;;;;;;;;;5034988;28;20040;-59
2022/02/26 05:39:35;;;;;;;4.13;3.72;;;;;;;;;;5034043;28;20044;-60
2022/02/26 05:42:01;;;;;;;4.53;4.13;;;;;;;;;;5033015;28;20132;-59
2022/02/26 05:44:27;;;;;;;5.20;4.80;;;;;;;;;;5025708;28;20045;-59
2022/02/26 05:46:52;;;;;;;4.50;4.10;;;;;;;;;;5025296;28;20041;-59
2022/02/26 05:49:19;;;;;;;4.07;3.70;;;;;;;;;;5027661;28;20037;-59
2022/02/26 05:51:44;;;;;;;4.07;3.67;;;;;;;;;;5029217;28;20025;-60
2022/02/26 05:54:10;;;;;;;7.93;4.75;;;;;;;;;;5029559;28;20044;-61
2022/02/26 05:56:35;;;;;;;11.32;4.90;;;;;;;;;;5026371;28;20025;-62
2022/02/26 05:59:01;;;;;;;4.32;3.92;;;;;;;;;;5022695;28;20820;-61
2022/02/26 06:01:26;;;;;;;3.92;3.53;;;;;;;;;;5024953;28;20044;-61
2022/02/26 06:03:51;;;;;;;5.47;4.70;;;;;;;;;;5022216;28;20175;-62
2022/02/26 06:06:17;;;;;;;5.90;4.50;;;;;;;;;;5023672;28;20455;-60
2022/02/26 06:08:42;;;;;;;4.05;3.70;;;;;;;;;;5028360;28;20032;-59
2022/02/26 06:11:07;;;;;;;5.07;4.22;;;;;;;;;;5027812;28;20033;-59
2022/02/26 06:13:33;;;;;;;5.15;4.00;;;;;;;;;;5031274;28;20114;-59
2022/02/26 06:15:58;;;;;;;3.58;3.28;;;;;;;;;;5035269;28;20033;-59
2022/02/26 06:18:24;;;;;;;3.60;3.30;;;;;;;;;;5031398;28;20028;-59
2022/02/26 06:20:50;;;;;;;4.55;3.85;;;;;;;;;;5035920;28;20022;-60
2022/02/26 06:23:15;;;;;;;3.67;3.35;;;;;;;;;;5033743;28;20033;-61
2022/02/26 06:25:40;;;;;;;3.40;3.10;;;;;;;;;;5030688;28;20497;-59
2022/02/26 06:28:06;;;;;;;4.10;3.70;;;;;;;;;;5031597;28;21277;-62
2022/02/26 06:30:31;;;;;;;4.18;3.78;;;;;;;;;;5030211;28;20095;-62
2022/02/26 06:32:56;;;;;;;4.43;4.03;;;;;;;;;;5033858;28;20029;-61
2022/02/26 06:35:22;;;;;;;4.75;4.35;;;;;;;;;;5034562;28;20040;-61
2022/02/26 06:37:47;;;;;;;5.85;3.60;;;;;;;;;;5034217;28;20506;-60
2022/02/26 06:40:13;;;;;;;4.65;4.25;;;;;;;;;;5029286;28;20037;-61
2022/02/26 06:42:38;;;;;;;4.45;4.05;;;;;;;;;;5032735;28;20609;-61
2022/02/26 06:45:05;;;;;;;4.07;3.67;;;;;;;;;;5035013;28;20033;-63
2022/02/26 06:47:31;;;;;;;3.53;3.22;;;;;;;;;;5034850;28;20030;-61
2022/02/26 06:49:56;;;;;;;3.80;3.47;;;;;;;;;;5035601;28;20474;-61
2022/02/26 06:52:22;;;;;;;3.78;3.47;;;;;;;;;;5034734;28;20531;-61
2022/02/26 06:54:47;;;;;;;4.63;4.20;;;;;;;;;;5038046;28;20029;-61
2022/02/26 06:57:13;;;;;;;4.25;3.85;;;;;;;;;;5035105;28;20525;-61
2022/02/26 06:59:38;;;;;;;4.65;3.97;;;;;;;;;;5038089;28;20466;-61
2022/02/26 07:02:04;;;;;;;4.07;3.65;;;;;;;;;;5035869;28;20065;-61
2022/02/26 07:04:29;;;;;;;3.88;3.58;;;;;;;;;;5037283;28;20103;-61
2022/02/26 07:06:55;;;;;;;4.78;4.28;;;;;;;;;;5034684;28;20036;-59
2022/02/26 07:09:23;;;;;;;9.18;4.65;;;;;;;;;;5031202;28;20021;-59
2022/02/26 07:11:49;;;;;;;4.32;3.92;;;;;;;;;;5031560;28;20051;-59
2022/02/26 07:14:15;;;;;;;4.63;4.22;;;;;;;;;;5031841;28;20451;-59
2022/02/26 07:16:41;;;;;;;4.38;3.97;;;;;;;;;;5029295;28;20136;-59
2022/02/26 07:19:07;;;;;;;5.85;4.28;;;;;;;;;;5020162;28;20033;-59
2022/02/26 07:21:33;;;;;;;4.18;3.50;;;;;;;;;;5031406;28;20051;-59
2022/02/26 07:23:59;;;;;;;4.47;3.67;;;;;;;;;;5027256;28;20129;-60
2022/02/26 07:26:25;;;;;;;4.90;4.50;;;;;;;;;;5028704;28;20107;-60
2022/02/26 07:28:51;;;;;;;4.53;4.13;;;;;;;;;;5025872;28;20116;-60
2022/02/26 07:31:16;;;;;;;5.97;4.18;;;;;;;;;;5034127;28;20037;-61
2022/02/26 07:33:41;;;;;;;3.97;3.67;;;;;;;;;;5037465;28;20025;-61
2022/02/26 07:36:08;;;;;;;4.05;3.70;;;;;;;;;;5035705;28;20064;-61
2022/02/26 07:38:34;;;;;;;5.15;4.32;;;;;;;;;;5034478;28;20112;-60
2022/02/26 07:41:00;;;;;;;3.83;3.53;;;;;;;;;;5036255;28;20029;-61
2022/02/26 07:43:25;;;;;;;7.47;4.43;;;;;;;;;;5034471;28;20026;-61
2022/02/26 07:45:51;;;;;;;9.63;4.53;;;;;;;;;;5037896;28;20040;-60
2022/02/26 07:48:16;;;;;;;5.47;4.43;;;;;;;;;;5039382;28;20041;-61
2022/02/26 07:50:42;;;;;;;5.20;4.70;;;;;;;;;;5041124;28;20052;-60
2022/02/26 07:53:08;;;;;;;6.15;4.22;;;;;;;;;;5038830;28;20075;-61
2022/02/26 07:55:35;;;;;;;5.97;5.15;;;;;;;;;;5035804;28;20029;-62
2022/02/26 07:58:02;;;;;;;12.52;4.80;;;;;;;;;;5029992;28;20033;-61
2022/02/26 08:00:28;;;;;;;6.28;4.53;;;;;;;;;;5032203;28;20506;-61
2022/02/26 08:02:53;;;;;;;4.90;4.50;;;;;;;;;;5036502;28;20033;-61
2022/02/26 08:05:18;;;;;;;6.25;5.75;;;;;;;;;;5038524;28;20049;-60
2022/02/26 08:07:45;;;;;;;10.27;6.00;;;;;;;;;;5036746;28;20055;-61
2022/02/26 08:10:11;;;;;;;6.15;5.65;;;;;;;;;;5037169;28;20034;-60
2022/02/26 08:12:36;;;;;;;7.43;5.93;;;;;;;;;;5038942;28;20029;-59
2022/02/26 08:15:03;;;;;;;5.65;5.10;;;;;;;;;;5035606;28;20036;-61
2022/02/26 08:17:28;;;;;;;6.25;5.60;;;;;;;;;;5038793;28;20047;-60
2022/02/26 08:19:55;;;;;;;4.80;4.40;;;;;;;;;;5038260;28;20040;-61
2022/02/26 08:22:20;;;;;;;14.32;5.10;;;;;;;;;;5035162;28;20094;-61
2022/02/26 08:24:46;;;;;;;4.40;4.05;;;;;;;;;;5034330;28;20034;-61
2022/02/26 08:27:12;;;;;;;4.90;4.50;;;;;;;;;;5038116;28;20447;-61
2022/02/26 08:29:38;;;;;;;5.03;4.63;;;;;;;;;;5034161;28;20040;-62
2022/02/26 08:32:04;;;;;;;6.28;5.78;;;;;;;;;;5038928;28;20025;-61
2022/02/26 08:34:30;;;;;;;6.22;5.72;;;;;;;;;;5036245;28;20030;-60
2022/02/26 08:36:56;;;;;;;6.65;5.72;;;;;;;;;;5037519;28;20045;-60
2022/02/26 08:39:22;;;;;;;7.25;5.57;;;;;;;;;;5032332;28;20049;-60
2022/02/26 08:41:48;;;;;;;6.13;5.55;;;;;;;;;;5032483;28;20116;-60
2022/02/26 08:44:13;;;;;;;5.75;5.25;;;;;;;;;;5036663;28;20519;-60
2022/02/26 08:46:39;;;;;;;4.45;4.05;;;;;;;;;;5034341;28;20087;-60
2022/02/26 08:49:04;;;;;;;4.90;4.50;;;;;;;;;;5032120;28;20025;-60
2022/02/26 08:51:29;;;;;;;5.07;4.57;;;;;;;;;;5029679;28;20452;-60
2022/02/26 08:53:55;;;;;;;6.30;4.65;;;;;;;;;;5031896;28;20581;-60
2022/02/26 08:56:23;;;;;;;4.35;3.95;;;;;;;;;;5031117;28;20037;-60
2022/02/26 08:58:51;;;;;;;5.32;4.82;;;;;;;;;;5028308;28;20454;-60
2022/02/26 09:01:17;;;;;;;5.72;5.22;;;;;;;;;;5031171;28;20033;-60
2022/02/26 09:03:42;;;;;;;3.83;3.53;;;;;;;;;;5034639;28;20033;-60
2022/02/26 09:06:08;;;;;;;6.82;4.40;;;;;;;;;;5032183;28;20048;-60
2022/02/26 09:08:35;;;;;;;8.00;4.35;;;;;;;;;;5032077;28;20529;-60
2022/02/26 09:11:01;;;;;;;5.53;5.03;;;;;;;;;;5034454;28;20036;-60
2022/02/26 09:13:26;;;;;;;6.07;5.47;;;;;;;;;;5028962;28;20044;-60
2022/02/26 09:15:52;;;;;;;9.82;4.45;;;;;;;;;;5029530;28;20032;-60
2022/02/26 09:18:17;;;;;;;4.43;4.03;;;;;;;;;;5033262;28;20033;-60
2022/02/26 09:20:43;;;;;;;9.88;4.53;;;;;;;;;;5029441;28;20649;-60
2022/02/26 09:23:08;;;;;;;4.20;3.90;;;;;;;;;;5032117;28;20044;-60
2022/02/26 09:25:33;;;;;;;5.13;4.63;;;;;;;;;;5032909;28;20121;-60
2022/02/26 09:28:00;;;;;;;6.95;4.95;;;;;;;;;;5032064;28;20607;-60
2022/02/26 09:30:26;;;;;;;4.55;4.13;;;;;;;;;;5032284;28;20038;-60
2022/02/26 09:32:51;;;;;;;6.60;4.93;;;;;;;;;;5030385;28;20041;-60
2022/02/26 09:35:17;;;;;;;4.80;4.40;;;;;;;;;;5030216;28;20071;-60
2022/02/26 09:37:42;;;;;;;4.60;4.20;;;;;;;;;;5032777;28;20148;-60
2022/02/26 09:40:08;;;;;;;8.65;6.22;;;;;;;;;;5027778;28;20042;-60
2022/02/26 09:42:34;;;;;;;4.70;4.30;;;;;;;;;;5029407;28;20037;-60
2022/02/26 09:44:59;;;;;;;4.78;4.38;;;;;;;;;;5026904;28;20039;-60
2022/02/26 09:47:25;;;;;;;9.07;5.05;;;;;;;;;;5029360;28;20067;-60
2022/02/26 09:49:50;;;;;;;4.10;3.80;;;;;;;;;;5026527;28;20047;-60
2022/02/26 09:52:17;;;;;;;4.40;4.00;;;;;;;;;;5025396;28;20037;-60
2022/02/26 09:54:48;;;;;;;5.28;4.82;;;;;;;;;;5037743;28;20049;-60
2022/02/26 09:57:15;;;;;;;4.75;4.35;;;;;;;;;;5035681;28;20116;-60
2022/02/26 09:59:43;;;;;;;5.35;4.95;;;;;;;;;;5034018;28;20079;-60
2022/02/26 10:02:09;;;;;;;7.30;5.25;;;;;;;;;;5027693;28;20052;-60
2022/02/26 10:04:51;;;;;;;6.60;4.50;;;;;;;;;;5034572;28;20033;-60
2022/02/26 10:07:17;;;;;;;4.40;4.00;;;;;;;;;;5034636;28;20033;-60
2022/02/26 10:09:45;;;;;;;5.15;4.75;;;;;;;;;;5031421;28;20025;-60
2022/02/26 10:12:28;;;;;;;7.35;4.88;;;;;;;;;;5026291;28;20029;-60
2022/02/26 10:14:56;;;;;;;7.15;4.57;;;;;;;;;;5016665;28;20026;-60
2022/02/26 10:17:26;;;;;;;4.63;4.22;;;;;;;;;;5027596;28;20459;-60
2022/02/26 10:20:13;;;;;;;4.72;4.32;;;;;;;;;;5029469;28;20044;-60
2022/02/26 10:22:44;;;;;;;4.05;3.75;;;;;;;;;;5029612;28;20037;-60
2022/02/26 10:25:14;;;;;;;5.15;4.75;;;;;;;;;;5037794;28;20447;-60
2022/02/26 10:27:47;;;;;;;9.87;4.10;;;;;;;;;;5035176;28;20033;-60
2022/02/26 10:30:19;;;;;;;5.50;5.00;;;;;;;;;;5038878;28;20299;-60
2022/02/26 10:33:08;;;;;;;4.82;4.43;;;;;;;;;;5036140;28;20037;-60
2022/02/26 10:35:44;;;;;;;4.63;4.22;;;;;;;;;;5035603;28;20033;-60
2022/02/26 10:38:21;;;;;;;5.78;5.18;;;;;;;;;;5036576;28;20069;-60
2022/02/26 10:41:10;;;;;;;7.63;5.35;;;;;;;;;;5035525;28;20034;-60
2022/02/26 10:43:46;;;;;;;4.63;4.22;;;;;;;;;;5035386;28;20067;-60
2022/02/26 10:46:24;;;;;;;4.50;4.10;;;;;;;;;;5034556;28;20029;-60
2022/02/26 10:48:52;;;;;;;4.68;4.10;;;;;;;;;;5035946;28;20043;-60
2022/02/26 10:51:25;;;;;;;5.10;4.70;;;;;;;;;;5032188;28;20090;-61
2022/02/26 10:53:51;;;;;;;4.75;4.35;;;;;;;;;;5033904;28;20039;-62
2022/02/26 10:56:17;;;;;;;5.47;4.45;;;;;;;;;;5035853;28;20033;-61
2022/02/26 10:58:43;;;;;;;5.00;4.60;;;;;;;;;;5032412;28;20512;-61
2022/02/26 11:01:12;;;;;;;4.95;4.55;;;;;;;;;;5035913;28;20087;-61
2022/02/26 11:03:38;;;;;;;6.03;4.40;;;;;;;;;;5035128;28;20043;-61
2022/02/26 11:06:06;;;;;;;4.78;4.38;;;;;;;;;;5034211;28;20029;-61
2022/02/26 11:08:31;;;;;;;5.20;4.72;;;;;;;;;;5030908;28;20037;-61
2022/02/26 11:10:58;;;;;;;4.57;4.18;;;;;;;;;;5032199;28;20447;-61
2022/02/26 11:13:25;;;;;;;6.47;5.32;;;;;;;;;;5030846;28;20033;-61
2022/02/26 11:15:53;;;;;;;5.05;4.65;;;;;;;;;;5032059;28;20033;-61
2022/02/26 11:18:20;;;;;;;5.05;4.55;;;;;;;;;;5032924;28;20033;-61
2022/02/26 11:20:46;;;;;;;4.82;4.40;;;;;;;;;;5033021;28;20132;-61
2022/02/26 11:23:12;;;;;;;4.78;4.32;;;;;;;;;;5031857;28;20059;-61
2022/02/26 11:25:39;;;;;;;5.00;4.55;;;;;;;;;;5034917;28;20463;-61
2022/02/26 11:28:06;;;;;;;6.38;5.75;;;;;;;;;;5032390;28;20033;-62
2022/02/26 11:30:41;;;;;;;5.40;4.90;;;;;;;;;;5037372;28;20025;-61
2022/02/26 11:33:07;;;;;;;6.70;4.53;;;;;;;;;;5037424;28;20032;-61
2022/02/26 11:35:32;;;;;;;6.32;4.75;;;;;;;;;;5036500;28;20048;-61
2022/02/26 11:38:07;;;;;;;8.30;4.65;;;;;;;;;;5028728;28;20325;-62
2022/02/26 11:40:33;;;;;;;5.38;4.80;;;;;;;;;;5029530;28;20457;-61
2022/02/26 11:42:59;;;;;;;6.07;4.07;;;;;;;;;;5033032;28;20032;-61
2022/02/26 11:45:31;;;;;;;5.18;4.78;;;;;;;;;;5032868;28;20750;-60
2022/02/26 11:48:08;;;;;;;6.82;4.88;;;;;;;;;;5031787;28;20423;-60
2022/02/26 11:50:40;;;;;;;5.63;5.13;;;;;;;;;;5033478;28;20068;-60
2022/02/26 11:53:20;;;;;;;4.15;3.85;;;;;;;;;;5034089;28;20021;-60
2022/02/26 11:56:03;;;;;;;4.80;4.30;;;;;;;;;;5033491;28;20033;-59
2022/02/26 11:58:35;;;;;;;4.63;4.22;;;;;;;;;;5033198;28;20467;-59
2022/02/26 12:01:08;;;;;;;4.75;4.35;;;;;;;;;;5036006;28;20029;-59
2022/02/26 12:03:41;;;;;;;4.70;4.30;;;;;;;;;;5035334;28;20083;-59
2022/02/26 12:06:09;;;;;;;6.55;4.32;;;;;;;;;;5034396;28;20035;-59
2022/02/26 12:08:38;;;;;;;12.82;4.70;;;;;;;;;;5032050;28;20042;-59
2022/02/26 12:11:06;;;;;;;5.20;4.80;;;;;;;;;;5031222;28;20041;-59
2022/02/26 12:13:40;;;;;;;8.93;5.00;;;;;;;;;;5030616;28;20033;-60
2022/02/26 12:16:20;;;;;;;9.27;5.60;;;;;;;;;;5036457;28;20037;-60
2022/02/26 12:18:58;;;;;;;4.80;4.40;;;;;;;;;;5036286;28;20176;-60
2022/02/26 12:21:29;;;;;;;4.50;4.13;;;;;;;;;;5037667;28;20033;-61
2022/02/26 12:24:03;;;;;;;4.47;4.10;;;;;;;;;;5036410;28;20493;-59
2022/02/26 12:26:44;;;;;;;8.18;5.72;;;;;;;;;;5035234;28;20096;-60
2022/02/26 12:29:09;;;;;;;6.38;5.80;;;;;;;;;;5037678;28;20047;-60
2022/02/26 12:31:52;;;;;;;5.15;4.70;;;;;;;;;;5031982;28;20033;-60
2022/02/26 12:34:18;;;;;;;5.45;5.00;;;;;;;;;;5031576;28;20470;-60
2022/02/26 12:37:07;;;;;;;5.20;4.80;;;;;;;;;;5031540;28;20041;-60
2022/02/26 12:39:36;;;;;;;4.32;3.95;;;;;;;;;;5031949;28;20094;-60
2022/02/26 12:42:02;;;;;;;6.65;4.65;;;;;;;;;;5032918;28;20336;-59
2022/02/26 12:44:27;;;;;;;6.47;4.50;;;;;;;;;;5033601;28;20048;-58
2022/02/26 12:46:53;;;;;;;4.90;4.50;;;;;;;;;;5038846;28;20060;-60
2022/02/26 12:49:20;;;;;;;4.60;4.20;;;;;;;;;;5036504;28;20091;-59
2022/02/26 12:51:45;;;;;;;5.15;4.65;;;;;;;;;;5033999;28;20037;-60
2022/02/26 12:54:12;;;;;;;4.07;3.78;;;;;;;;;;5036001;28;20041;-59
2022/02/26 12:56:39;;;;;;;4.90;4.50;;;;;;;;;;5036109;28;20041;-60
2022/02/26 12:59:17;;;;;;;5.82;5.25;;;;;;;;;;5035094;28;20029;-59
2022/02/26 13:01:45;;;;;;;5.28;4.78;;;;;;;;;;5034395;28;20038;-59
2022/02/26 13:04:16;;;;;;;6.05;5.55;;;;;;;;;;5031123;28;20134;-60
2022/02/26 13:06:55;;;;;;;5.88;5.38;;;;;;;;;;5029159;28;20040;-59
2022/02/26 13:09:21;;;;;;;5.57;5.07;;;;;;;;;;5032808;28;20043;-59
2022/02/26 13:11:48;;;;;;;5.43;4.57;;;;;;;;;;5032703;28;20036;-59
2022/02/26 13:14:16;;;;;;;4.63;4.22;;;;;;;;;;5033953;28;20067;-60
2022/02/26 13:16:55;;;;;;;5.60;4.47;;;;;;;;;;5032764;28;20247;-60
2022/02/26 13:19:21;;;;;;;5.15;4.72;;;;;;;;;;5027433;28;20037;-60
2022/02/26 13:21:46;;;;;;;4.95;4.55;;;;;;;;;;5029727;28;20033;-59
2022/02/26 13:24:12;;;;;;;6.18;5.22;;;;;;;;;;5040372;28;20048;-59
2022/02/26 13:26:37;;;;;;;5.07;4.50;;;;;;;;;;5036979;28;20116;-60
2022/02/26 13:29:08;;;;;;;8.90;4.75;;;;;;;;;;5035034;28;20202;-59
2022/02/26 13:31:36;;;;;;;10.77;5.85;;;;;;;;;;5037100;28;20571;-59
2022/02/26 13:34:19;;;;;;;6.75;4.18;;;;;;;;;;5037143;28;20030;-59
2022/02/26 13:36:47;;;;;;;5.50;5.00;;;;;;;;;;5034367;28;20410;-60
2022/02/26 13:39:13;;;;;;;14.63;4.30;;;;;;;;;;5036806;28;20037;-59
2022/02/26 13:41:40;;;;;;;5.35;4.85;;;;;;;;;;5021618;28;20037;-59
2022/02/26 13:44:07;;;;;;;4.82;4.43;;;;;;;;;;5031226;28;20047;-60
2022/02/26 13:46:36;;;;;;;5.43;4.80;;;;;;;;;;5028724;28;20037;-62
2022/02/26 13:49:02;;;;;;;5.50;5.00;;;;;;;;;;5029159;28;20760;-60
2022/02/26 13:51:34;;;;;;;4.97;4.57;;;;;;;;;;5029974;28;20553;-60
2022/02/26 13:54:01;;;;;;;5.38;4.97;;;;;;;;;;5028666;28;20029;-59
2022/02/26 13:56:28;;;;;;;9.32;4.47;;;;;;;;;;5029445;28;20033;-60
2022/02/26 13:58:54;;;;;;;4.80;4.40;;;;;;;;;;5030180;28;20964;-60
2022/02/26 14:01:20;;;;;;;5.90;4.72;;;;;;;;;;5030429;28;20042;-60
2022/02/26 14:03:53;;;;;;;5.90;5.03;;;;;;;;;;5037540;28;20036;-60
2022/02/26 14:06:43;;;;;;;5.57;5.18;;;;;;;;;;5037262;28;20029;-60
2022/02/26 14:09:19;;;;;;;5.75;5.35;;;;;;;;;;5035755;28;20068;-60
2022/02/26 14:11:57;;;;;;;6.32;5.72;;;;;;;;;;5032597;28;20066;-59
2022/02/26 14:14:26;;;;;;;5.78;5.18;;;;;;;;;;5033153;28;20041;-60
2022/02/26 14:16:52;;;;;;;4.95;4.55;;;;;;;;;;5032400;28;20044;-60
2022/02/26 14:19:17;;;;;;;4.82;4.43;;;;;;;;;;5036979;28;20501;-60
2022/02/26 14:21:45;;;;;;;4.65;4.25;;;;;;;;;;5035805;28;20073;-60
2022/02/26 14:24:10;;;;;;;4.05;3.75;;;;;;;;;;5032440;28;20513;-62
2022/02/26 14:26:35;;;;;;;5.50;5.00;;;;;;;;;;5034527;28;20112;-61
2022/02/26 14:29:03;;;;;;;4.72;4.32;;;;;;;;;;5036160;28;20033;-61
2022/02/26 14:31:29;;;;;;;9.05;4.95;;;;;;;;;;5036879;28;20029;-60
2022/02/26 14:33:54;;;;;;;4.22;3.92;;;;;;;;;;5037832;28;20512;-60
2022/02/26 14:36:19;;;;;;;4.72;4.32;;;;;;;;;;5036686;28;20045;-60
2022/02/26 14:38:47;;;;;;;4.38;4.03;;;;;;;;;;5030815;28;20028;-59
2022/02/26 14:41:12;;;;;;;4.57;4.18;;;;;;;;;;5033708;28;20065;-60
2022/02/26 14:43:38;;;;;;;12.10;4.28;;;;;;;;;;5033529;28;20138;-60